Terminal Aerodrome Forecast
Issued by NWS

Home | Current Version | Previous Version | Text Only | Print | Product List | Glossary On
Versions: 1 2 3 4 5 6 7 8 9 10 11 12 13 14 15 16 17 18 19 20 21 22 23
000
FTUS41 KPHI 200559
TAFMIV
TAF
KMIV 200559Z 2006/2106 00000KT P6SM SCT250
     FM200700 VRB02KT 4SM BR BKN250
      TEMPO 2009/2011 2SM BR
     FM201600 16005KT 6SM -RA SCT030 OVC080
     FM201900 14006KT 3SM -RA BR BKN015 OVC035
     FM202300 15004KT 4SM BR BKN008 OVC015
     FM210400 VRB03KT 2SM BR OVC004=

USA.gov is the U.S. government's official web portal to all federal, state and local government web resources and services.